Tammy J — SYC1234 — position and weather

sailwx.info

Track history (hours):
 
Tides and Currents Weather Stations Pressure Air Temp Water Temp Dewpoint Dewpoint Depression Visibility Wind Speed Wind Dir Waves Ship Positions

Tammy J

Last reported at 2018-Feb-20 18:48 UTC. Time now 2018-Feb-25 01:48 UTC.
Position N 47°39' W 122°20'.

Length 16 m.

Type: Pleasure craft. MMSI: 338164347.

Date/timePositionNaut miles runAvg speedWind from/ knotsBaromVisibWave heightAir tempDewpointWater temp
2018-Feb-20 18:48N 47°39' W 122°20'2 5.6
2018-Feb-20 18:30N 47°39' W 122°22'2 4.0
2018-Feb-20 18:00N 47°40' W 122°25'5 9.1
2018-Feb-20 17:28N 47°43' W 122°31'  
2018-Feb-17 18:59N 47°42' W 122°32'3 6.5
2018-Feb-17 18:29N 47°39' W 122°29'3 0.5
2018-Feb-17 13:36N 47°37' W 122°31'0 0.0
2018-Feb-17 13:24N 47°37' W 122°31'0 0.0
2018-Feb-17 13:00N 47°37' W 122°31'0 0.0
2018-Feb-17 10:49N 47°37' W 122°31'0 0.0
2018-Feb-17 10:18N 47°37' W 122°31'0 0.0
2018-Feb-17 10:00N 47°37' W 122°31'0 0.0
2018-Feb-17 09:24N 47°37' W 122°31'0 0.0
2018-Feb-17 08:54N 47°37' W 122°31'0 0.0
2018-Feb-17 08:12N 47°37' W 122°31'0 0.0
2018-Feb-17 07:54N 47°37' W 122°31'0 0.0
2018-Feb-17 07:30N 47°37' W 122°31'1 0.1
2018-Feb-16 21:15N 47°37' W 122°30'2 5.9
2018-Feb-16 20:58N 47°37' W 122°28'4 8.4
2018-Feb-16 20:30N 47°41' W 122°25'1 2.1
2018-Feb-16 20:00N 47°40' W 122°23'  
Track history (hours):
 
Tides and Currents Weather Stations Pressure Air Temp Water Temp Dewpoint Dewpoint Depression Visibility Wind Speed Wind Dir Waves Ship Positions

Tammy J

Last reported at 2018-Feb-20 18:48 UTC. Time now 2018-Feb-25 01:48 UTC.
Position N 47°39' W 122°20'.

Length 16 m.

Type: Pleasure craft. MMSI: 338164347.

Date/timePositionNaut miles runAvg speedWind from/ knotsBaromVisibWave heightAir tempDewpointWater temp
2018-Feb-20 18:48N 47°39' W 122°20'2 5.6
2018-Feb-20 18:30N 47°39' W 122°22'2 4.0
2018-Feb-20 18:00N 47°40' W 122°25'5 9.1
2018-Feb-20 17:28N 47°43' W 122°31'  
2018-Feb-17 18:59N 47°42' W 122°32'3 6.5
2018-Feb-17 18:29N 47°39' W 122°29'3 0.5
2018-Feb-17 13:36N 47°37' W 122°31'0 0.0
2018-Feb-17 13:24N 47°37' W 122°31'0 0.0
2018-Feb-17 13:00N 47°37' W 122°31'0 0.0
2018-Feb-17 10:49N 47°37' W 122°31'0 0.0
2018-Feb-17 10:18N 47°37' W 122°31'0 0.0
2018-Feb-17 10:00N 47°37' W 122°31'0 0.0
2018-Feb-17 09:24N 47°37' W 122°31'0 0.0
2018-Feb-17 08:54N 47°37' W 122°31'0 0.0
2018-Feb-17 08:12N 47°37' W 122°31'0 0.0
2018-Feb-17 07:54N 47°37' W 122°31'0 0.0
2018-Feb-17 07:30N 47°37' W 122°31'1 0.1
2018-Feb-16 21:15N 47°37' W 122°30'2 5.9
2018-Feb-16 20:58N 47°37' W 122°28'4 8.4
2018-Feb-16 20:30N 47°41' W 122°25'1 2.1
2018-Feb-16 20:00N 47°40' W 122°23'  

Dump ship's entire track history